createdAt,value
2023-03-19T00:01:51.473Z,22.90
2023-03-19T00:04:21.038Z,20.93
2023-03-19T00:06:50.552Z,22.47
2023-03-19T00:09:20.096Z,25.50
2023-03-19T00:11:49.929Z,22.40
2023-03-19T00:14:20.961Z,21.73
2023-03-19T00:16:50.222Z,20.77
2023-03-19T00:19:19.511Z,23.60
2023-03-19T00:21:48.840Z,20.73
2023-03-19T00:24:18.162Z,24.30
2023-03-19T00:26:47.386Z,20.90
2023-03-19T00:29:16.755Z,20.23
2023-03-19T00:31:47.886Z,24.60
2023-03-19T00:34:19.116Z,26.60
2023-03-19T00:36:49.219Z,22.20
2023-03-19T00:39:18.490Z,22.33
2023-03-19T00:41:50.772Z,24.40
2023-03-19T00:44:20.198Z,21.97
2023-03-19T00:46:50.969Z,21.70
2023-03-19T00:49:20.223Z,22.67
2023-03-19T00:51:49.431Z,24.87
2023-03-19T00:54:18.702Z,22.47
2023-03-19T00:56:48.061Z,23.40
2023-03-19T00:59:17.327Z,22.03
2023-03-19T01:01:46.679Z,20.13
2023-03-19T01:04:18.024Z,23.23
2023-03-19T01:06:47.290Z,23.13
2023-03-19T01:09:16.832Z,23.47
2023-03-19T01:11:46.148Z,22.77
2023-03-19T01:14:17.379Z,22.03
2023-03-19T01:16:47.552Z,23.20
2023-03-19T01:19:18.627Z,22.47
2023-03-19T01:21:49.755Z,24.53
2023-03-19T01:24:23.269Z,21.30
2023-03-19T01:26:56.229Z,23.07
2023-03-19T01:29:31.239Z,27.47
2023-03-19T01:32:04.220Z,24.70
2023-03-19T01:34:46.886Z,22.20
2023-03-19T01:37:19.588Z,25.37
2023-03-19T01:39:49.000Z,22.50
2023-03-19T01:42:18.342Z,22.63
2023-03-19T01:45:31.927Z,25.00
2023-03-19T01:48:33.794Z,24.70
2023-03-19T01:51:12.677Z,22.80
2023-03-19T01:54:00.151Z,24.90
2023-03-19T01:56:39.976Z,21.57
2023-03-19T01:59:30.637Z,23.53
2023-03-19T02:02:35.379Z,20.80
2023-03-19T02:05:25.812Z,20.80
2023-03-19T02:08:04.480Z,24.67
2023-03-19T02:10:34.263Z,22.70
2023-03-19T02:13:03.950Z,22.87
2023-03-19T02:15:33.585Z,24.73
2023-03-19T02:18:02.836Z,21.33
2023-03-19T02:20:36.540Z,29.47
2023-03-19T02:23:15.935Z,20.87
2023-03-19T02:26:08.025Z,23.93
2023-03-19T02:28:40.542Z,25.37
2023-03-19T02:31:10.702Z,27.17
2023-03-19T02:33:40.800Z,23.23
2023-03-19T02:36:16.147Z,20.90
2023-03-19T02:38:47.957Z,22.07
2023-03-19T02:41:18.791Z,22.70
2023-03-19T02:43:48.246Z,22.83
2023-03-19T02:46:17.788Z,25.37
2023-03-19T02:48:47.056Z,24.10
2023-03-19T02:51:16.440Z,22.73
2023-03-19T02:53:45.852Z,23.87
2023-03-19T02:56:15.659Z,20.40
2023-03-19T02:58:46.556Z,20.03
2023-03-19T03:01:16.086Z,22.60
2023-03-19T03:03:45.323Z,23.17
2023-03-19T03:06:14.753Z,20.77
2023-03-19T03:08:44.030Z,23.53
2023-03-19T03:11:13.501Z,21.10
2023-03-19T03:13:42.838Z,25.70
2023-03-19T03:16:13.828Z,24.13
2023-03-19T03:18:44.776Z,20.60
2023-03-19T03:21:14.094Z,23.90
2023-03-19T03:23:43.368Z,21.97
2023-03-19T03:26:12.696Z,22.23
2023-03-19T03:28:42.070Z,23.17
2023-03-19T03:31:13.980Z,22.40
2023-03-19T03:33:43.231Z,21.80
2023-03-19T03:36:12.726Z,28.50
2023-03-19T03:38:42.034Z,20.63
2023-03-19T03:41:11.510Z,22.37
2023-03-19T03:43:41.360Z,24.80
2023-03-19T03:46:10.989Z,24.07
2023-03-19T03:48:42.038Z,24.47
2023-03-19T03:51:11.917Z,24.80
2023-03-19T03:53:41.503Z,23.03
2023-03-19T03:56:11.032Z,24.27
2023-03-19T03:58:40.289Z,22.63
2023-03-19T04:01:09.526Z,22.87
2023-03-19T04:03:39.151Z,22.50
2023-03-19T04:06:10.725Z,25.63
2023-03-19T04:08:40.076Z,22.33
2023-03-19T04:11:10.350Z,22.17
2023-03-19T04:13:39.672Z,22.67
2023-03-19T04:16:10.373Z,22.23
2023-03-19T04:18:40.127Z,30.67
2023-03-19T04:21:10.816Z,22.13
2023-03-19T04:23:40.007Z,23.07
2023-03-19T04:26:09.990Z,24.63
2023-03-19T04:28:39.356Z,23.47
2023-03-19T04:31:09.850Z,22.00
2023-03-19T04:33:43.944Z,23.30
2023-03-19T04:36:14.628Z,24.50
2023-03-19T04:38:44.345Z,26.03
2023-03-19T04:41:14.164Z,22.97
2023-03-19T04:43:52.762Z,25.73
2023-03-19T04:46:22.134Z,23.67
2023-03-19T04:48:52.447Z,22.03
2023-03-19T04:51:23.358Z,20.63
2023-03-19T04:53:52.630Z,24.30
2023-03-19T04:56:22.160Z,25.27
2023-03-19T04:58:51.588Z,25.37
2023-03-19T05:01:21.107Z,25.63
2023-03-19T05:04:03.361Z,25.07
2023-03-19T05:06:36.640Z,23.13
2023-03-19T05:09:07.994Z,23.60
2023-03-19T05:11:37.663Z,27.53
2023-03-19T05:14:12.019Z,23.53
2023-03-19T05:17:07.791Z,22.17
2023-03-19T05:19:49.187Z,24.07
2023-03-19T05:22:21.277Z,21.73
2023-03-19T05:24:50.620Z,24.67
2023-03-19T05:27:20.198Z,24.33
2023-03-19T05:29:55.430Z,20.60
2023-03-19T05:32:44.543Z,18.60
2023-03-19T05:35:21.852Z,21.40
2023-03-19T05:37:52.635Z,23.63
2023-03-19T05:40:23.586Z,23.53
2023-03-19T05:42:53.464Z,18.53
2023-03-19T05:45:25.962Z,22.37
2023-03-19T05:47:58.395Z,19.33
2023-03-19T05:50:28.315Z,19.07
2023-03-19T05:53:28.219Z,22.57
2023-03-19T05:56:16.154Z,21.33
2023-03-19T05:59:02.414Z,19.40
2023-03-19T06:01:38.326Z,21.23
2023-03-19T06:04:07.826Z,19.52
2023-03-19T06:06:37.308Z,19.40
2023-03-19T06:09:08.070Z,17.23
2023-03-19T06:11:41.308Z,17.52
2023-03-19T06:14:31.022Z,19.55
2023-03-19T06:17:19.023Z,18.60
2023-03-19T06:19:50.137Z,18.05
2023-03-19T06:22:19.795Z,18.35
2023-03-19T06:24:50.702Z,17.83
2023-03-19T06:27:20.081Z,16.77
2023-03-19T06:29:49.674Z,17.83
2023-03-19T06:32:24.541Z,18.63
2023-03-19T06:34:56.540Z,17.30
2023-03-19T06:37:27.281Z,17.92
2023-03-19T06:39:58.485Z,17.65
2023-03-19T06:42:28.041Z,18.63
2023-03-19T06:44:57.357Z,17.70
2023-03-19T06:47:26.789Z,22.25
2023-03-19T06:49:56.801Z,17.83
2023-03-19T06:52:26.084Z,18.95
2023-03-19T06:54:56.837Z,18.65
2023-03-19T06:57:27.275Z,18.42
2023-03-19T06:59:56.641Z,16.88
2023-03-19T07:02:26.644Z,18.55
2023-03-19T07:04:56.170Z,21.13
2023-03-19T07:07:25.462Z,18.27
2023-03-19T07:09:54.787Z,18.58
2023-03-19T07:12:28.172Z,17.90
2023-03-19T07:14:58.142Z,20.60
2023-03-19T07:17:27.608Z,18.50
2023-03-19T07:19:56.948Z,19.92
2023-03-19T07:22:26.378Z,19.27
2023-03-19T07:24:55.667Z,18.45
2023-03-19T07:27:26.489Z,17.85
2023-03-19T07:29:56.646Z,20.70
2023-03-19T07:32:26.034Z,20.02
2023-03-19T07:34:55.285Z,20.52
2023-03-19T07:37:24.527Z,19.75
2023-03-19T07:39:54.096Z,16.73
2023-03-19T07:42:23.360Z,16.58
2023-03-19T07:44:54.146Z,19.30
2023-03-19T07:47:29.332Z,18.77
2023-03-19T07:49:59.432Z,18.08
2023-03-19T07:52:29.099Z,16.65
2023-03-19T07:54:58.491Z,16.20
2023-03-19T07:57:27.826Z,15.98
2023-03-19T07:59:58.484Z,15.88
2023-03-19T08:02:28.030Z,19.65
2023-03-19T08:04:57.459Z,16.55
2023-03-19T08:07:26.923Z,16.05
2023-03-19T08:09:57.797Z,16.50
2023-03-19T08:12:27.238Z,16.33
2023-03-19T08:14:58.014Z,15.77
2023-03-19T08:17:27.672Z,18.15
2023-03-19T08:19:57.059Z,14.15
2023-03-19T08:22:26.546Z,19.85
2023-03-19T08:24:55.916Z,14.57
2023-03-19T08:27:25.361Z,17.58
2023-03-19T08:29:54.731Z,15.45
2023-03-19T08:32:25.417Z,15.60
2023-03-19T08:34:54.744Z,15.35
2023-03-19T08:37:24.121Z,14.13
2023-03-19T08:39:53.926Z,14.57
2023-03-19T08:42:24.096Z,15.07
2023-03-19T08:44:53.480Z,14.90
2023-03-19T08:47:24.636Z,13.48
2023-03-19T08:49:56.148Z,14.82
2023-03-19T08:52:25.816Z,14.88
2023-03-19T08:54:55.069Z,14.30
2023-03-19T08:57:24.552Z,17.25
2023-03-19T08:59:54.675Z,14.88
2023-03-19T09:02:24.061Z,16.50
2023-03-19T09:04:55.050Z,13.90
2023-03-19T09:07:24.802Z,13.50
2023-03-19T09:09:54.081Z,13.43
2023-03-19T09:12:23.516Z,13.27
2023-03-19T09:14:52.865Z,13.35
2023-03-19T09:17:22.276Z,13.85
2023-03-19T09:19:51.586Z,12.38
2023-03-19T09:22:22.547Z,14.45
2023-03-19T09:24:52.380Z,13.00
2023-03-19T09:27:21.746Z,13.77
2023-03-19T09:29:51.126Z,11.98
2023-03-19T09:32:20.390Z,11.82
2023-03-19T09:34:49.927Z,11.50
2023-03-19T09:37:19.737Z,11.60
2023-03-19T09:39:50.718Z,10.98
2023-03-19T09:42:33.361Z,11.50
2023-03-19T09:45:03.518Z,11.43
2023-03-19T09:47:35.715Z,10.55
2023-03-19T09:50:08.588Z,11.93
2023-03-19T09:52:44.784Z,10.38
2023-03-19T09:55:33.872Z,10.10
2023-03-19T09:58:03.673Z,11.18
2023-03-19T10:00:38.002Z,9.90
2023-03-19T10:03:17.568Z,9.82
2023-03-19T10:05:54.467Z,9.55
2023-03-19T10:08:48.722Z,10.30
2023-03-19T10:11:36.918Z,11.05
2023-03-19T10:14:23.562Z,9.93
2023-03-19T10:16:56.274Z,11.32
2023-03-19T10:19:33.388Z,9.27
2023-03-19T10:22:07.537Z,9.38
2023-03-19T10:24:41.406Z,8.77
2023-03-19T10:27:15.586Z,9.63
2023-03-19T10:29:45.325Z,9.40
2023-03-19T10:32:20.401Z,9.68
2023-03-19T10:34:51.362Z,9.55
2023-03-19T10:37:22.770Z,13.50
2023-03-19T10:39:53.622Z,9.85
2023-03-19T10:42:44.660Z,9.27
2023-03-19T10:45:25.960Z,9.10
2023-03-19T10:47:56.457Z,9.43
2023-03-19T10:50:32.835Z,9.65
2023-03-19T10:53:07.348Z,9.93
2023-03-19T10:55:36.980Z,8.88
2023-03-19T10:58:18.261Z,9.95
2023-03-19T11:00:49.194Z,8.85
2023-03-19T11:03:32.438Z,9.93
2023-03-19T11:06:18.811Z,9.50
2023-03-19T11:08:56.829Z,9.70
2023-03-19T11:11:35.292Z,9.00
2023-03-19T11:14:17.453Z,9.98
2023-03-19T11:16:57.948Z,8.82
2023-03-19T11:19:29.797Z,8.95
2023-03-19T11:22:11.869Z,8.88
2023-03-19T11:24:42.322Z,8.45
2023-03-19T11:27:13.045Z,10.60
2023-03-19T11:29:45.606Z,12.25
2023-03-19T11:32:39.619Z,10.77
2023-03-19T11:35:15.841Z,9.32
2023-03-19T11:37:55.964Z,8.63
2023-03-19T11:40:40.083Z,13.45
2023-03-19T11:43:48.788Z,11.52
2023-03-19T11:46:28.722Z,9.65
2023-03-19T11:49:17.355Z,9.07
2023-03-19T11:51:52.497Z,9.38
2023-03-19T11:54:28.679Z,10.30
2023-03-19T11:57:02.455Z,9.75
2023-03-19T12:00:02.201Z,9.23
2023-03-19T12:03:11.196Z,8.48
2023-03-19T12:05:50.875Z,9.02
2023-03-19T12:08:31.378Z,8.75
2023-03-19T12:11:08.177Z,8.93
2023-03-19T12:13:47.341Z,8.98
2023-03-19T12:16:29.004Z,9.32
2023-03-19T12:19:41.013Z,8.68
2023-03-19T12:22:20.976Z,10.02
2023-03-19T12:25:18.950Z,9.13
2023-03-19T12:27:56.951Z,9.10
2023-03-19T12:30:35.992Z,9.98
2023-03-19T12:33:20.823Z,9.82
2023-03-19T12:35:55.104Z,8.43
2023-03-19T12:38:29.356Z,9.05
2023-03-19T12:41:02.774Z,9.70
2023-03-19T12:43:39.814Z,8.23
2023-03-19T12:46:13.730Z,9.15
2023-03-19T12:48:47.038Z,10.65
2023-03-19T12:51:22.004Z,9.75
2023-03-19T12:53:55.895Z,10.55
2023-03-19T12:56:36.844Z,8.65
2023-03-19T12:59:15.785Z,9.15
2023-03-19T13:01:49.281Z,8.52
2023-03-19T13:04:22.275Z,12.95
2023-03-19T13:06:58.334Z,10.18
2023-03-19T13:09:33.626Z,8.25
2023-03-19T13:12:08.175Z,8.52
2023-03-19T13:14:46.955Z,9.23
2023-03-19T13:17:27.742Z,8.95
2023-03-19T13:19:58.113Z,9.52
2023-03-19T13:22:34.478Z,9.27
2023-03-19T13:25:06.163Z,10.20
2023-03-19T13:27:37.742Z,9.32
2023-03-19T13:30:20.884Z,9.73
2023-03-19T13:32:52.203Z,8.55
2023-03-19T13:35:39.157Z,8.23
2023-03-19T13:38:20.076Z,9.15
2023-03-19T13:40:51.588Z,8.55
2023-03-19T13:43:47.774Z,8.43
2023-03-19T13:46:33.260Z,8.15
2023-03-19T13:49:26.740Z,8.93
2023-03-19T13:51:58.700Z,9.00
2023-03-19T13:54:39.284Z,8.70
2023-03-19T13:57:36.024Z,8.60
2023-03-19T14:00:48.115Z,8.45
2023-03-19T14:03:23.204Z,8.13
2023-03-19T14:05:55.432Z,7.78
2023-03-19T14:08:28.066Z,7.90
2023-03-19T14:11:01.138Z,7.57
2023-03-19T14:13:35.694Z,7.75
2023-03-19T14:16:15.054Z,8.52
2023-03-19T14:18:45.706Z,7.93
2023-03-19T14:21:21.973Z,9.82
2023-03-19T14:23:59.543Z,7.88
2023-03-19T14:26:31.132Z,8.80
2023-03-19T14:29:04.071Z,8.52
2023-03-19T14:31:44.266Z,9.32
2023-03-19T14:34:22.788Z,8.20
2023-03-19T14:37:02.177Z,7.85
2023-03-19T14:39:34.892Z,8.25
2023-03-19T14:42:10.031Z,8.88
2023-03-19T14:45:25.064Z,7.53
2023-03-19T14:48:33.873Z,8.95
2023-03-19T14:51:30.283Z,8.35
2023-03-19T14:54:05.174Z,7.25
2023-03-19T14:56:36.332Z,7.63
2023-03-19T14:59:12.678Z,7.82
2023-03-19T15:01:47.076Z,8.25
2023-03-19T15:04:19.060Z,7.55
2023-03-19T15:06:54.928Z,8.32
2023-03-19T15:09:30.766Z,7.45
2023-03-19T15:12:28.861Z,8.90
2023-03-19T15:15:17.553Z,7.70
2023-03-19T15:18:02.911Z,9.05
2023-03-19T15:20:39.119Z,7.53
2023-03-19T15:23:25.756Z,7.88
2023-03-19T15:26:01.335Z,8.10
2023-03-19T15:28:38.023Z,8.48
2023-03-19T15:31:29.144Z,9.38
2023-03-19T15:34:00.244Z,8.02
2023-03-19T15:36:35.759Z,8.55
2023-03-19T15:39:08.472Z,9.00
2023-03-19T15:41:43.788Z,9.20
2023-03-19T15:44:19.748Z,8.80
2023-03-19T15:46:53.769Z,8.23
2023-03-19T15:49:30.296Z,8.38
2023-03-19T15:52:07.495Z,11.32
2023-03-19T15:54:41.150Z,8.23
2023-03-19T15:57:16.052Z,7.53
2023-03-19T15:59:50.223Z,8.25
2023-03-19T16:02:29.054Z,8.57
2023-03-19T16:05:22.469Z,8.80
2023-03-19T16:07:58.612Z,7.68
2023-03-19T16:10:39.009Z,10.38
2023-03-19T16:13:33.020Z,7.93
2023-03-19T16:16:08.535Z,8.93
2023-03-19T16:18:53.584Z,8.18
2023-03-19T16:21:28.065Z,10.88
2023-03-19T16:24:02.965Z,8.27
2023-03-19T16:26:42.366Z,10.25
2023-03-19T16:29:21.844Z,9.73
2023-03-19T16:31:54.830Z,9.80
2023-03-19T16:34:38.261Z,9.20
2023-03-19T16:37:41.058Z,8.68
2023-03-19T16:40:42.700Z,11.70
2023-03-19T16:43:22.589Z,10.15
2023-03-19T16:45:55.771Z,9.93
2023-03-19T16:48:27.866Z,9.43
2023-03-19T16:51:03.768Z,11.20
2023-03-19T16:53:35.579Z,9.43
2023-03-19T16:56:10.231Z,10.82
2023-03-19T16:58:47.228Z,9.98
2023-03-19T17:01:21.097Z,12.98
2023-03-19T17:03:55.912Z,15.80
2023-03-19T17:06:32.682Z,19.05
2023-03-19T17:09:03.852Z,21.48
2023-03-19T17:11:39.276Z,15.85
2023-03-19T17:14:16.640Z,21.25
2023-03-19T17:16:55.174Z,19.67
2023-03-19T17:19:28.831Z,20.33
2023-03-19T17:22:02.448Z,24.47
2023-03-19T17:24:36.173Z,18.00
2023-03-19T17:27:11.901Z,24.67
2023-03-19T17:29:44.248Z,17.10
2023-03-19T17:32:20.836Z,25.63
2023-03-19T17:34:55.331Z,26.37
2023-03-19T17:37:32.365Z,23.63
2023-03-19T17:40:04.941Z,26.90
2023-03-19T17:42:50.467Z,26.90
2023-03-19T17:45:28.470Z,17.00
2023-03-19T17:48:02.598Z,15.53
2023-03-19T17:50:35.794Z,23.57
2023-03-19T17:53:13.111Z,18.03
2023-03-19T17:55:45.824Z,26.03
2023-03-19T17:58:20.712Z,19.00
2023-03-19T18:00:54.529Z,18.93
2023-03-19T18:03:30.516Z,16.43
2023-03-19T18:06:07.414Z,18.37
2023-03-19T18:08:42.873Z,19.20
2023-03-19T18:11:17.147Z,18.87
2023-03-19T18:13:49.515Z,18.50
2023-03-19T18:16:26.497Z,17.43
2023-03-19T18:19:03.167Z,16.60
2023-03-19T18:21:36.275Z,26.63
2023-03-19T18:24:14.572Z,22.20
2023-03-19T18:26:47.886Z,23.97
2023-03-19T18:29:20.359Z,28.13
2023-03-19T18:31:53.418Z,21.33
2023-03-19T18:34:24.727Z,20.97
2023-03-19T18:36:56.481Z,21.00
2023-03-19T18:39:31.558Z,28.47
2023-03-19T18:42:04.073Z,28.40
2023-03-19T18:44:43.607Z,26.10
2023-03-19T18:47:18.161Z,29.47
2023-03-19T18:49:52.351Z,26.97
2023-03-19T18:52:24.149Z,28.50
2023-03-19T18:54:58.343Z,22.90
2023-03-19T18:57:33.242Z,30.03
2023-03-19T19:00:06.564Z,27.37
2023-03-19T19:02:39.654Z,31.17
2023-03-19T19:05:17.560Z,25.33
2023-03-19T19:07:50.704Z,26.17
2023-03-19T19:10:24.481Z,25.17
2023-03-19T19:12:57.861Z,30.20
2023-03-19T19:15:32.692Z,30.17
2023-03-19T19:18:15.842Z,30.37
2023-03-19T19:20:50.855Z,27.30
2023-03-19T19:23:27.613Z,28.93
2023-03-19T19:26:01.519Z,26.80
2023-03-19T19:28:41.371Z,30.90
2023-03-19T19:31:27.843Z,30.80
2023-03-19T19:34:01.500Z,33.13
2023-03-19T19:36:35.023Z,33.17
2023-03-19T19:39:06.523Z,33.87
2023-03-19T19:41:40.129Z,33.03
2023-03-19T19:44:21.291Z,33.60
2023-03-19T19:46:58.326Z,35.60
2023-03-19T19:49:32.253Z,31.40
2023-03-19T19:52:04.180Z,33.90
2023-03-19T19:54:36.799Z,33.50
2023-03-19T19:57:23.343Z,35.60
2023-03-19T19:59:58.058Z,33.37
2023-03-19T20:02:32.944Z,33.30
2023-03-19T20:05:05.222Z,29.73
2023-03-19T20:07:36.681Z,35.57
2023-03-19T20:10:09.204Z,34.70
2023-03-19T20:12:44.909Z,34.23
2023-03-19T20:15:21.853Z,32.77
2023-03-19T20:17:56.667Z,39.37
2023-03-19T20:20:33.427Z,36.27
2023-03-19T20:23:06.421Z,36.30
2023-03-19T20:25:40.120Z,34.53
2023-03-19T20:28:22.035Z,33.83
2023-03-19T20:30:56.341Z,35.20
2023-03-19T20:33:32.262Z,31.37
2023-03-19T20:36:08.288Z,35.30
2023-03-19T20:38:42.732Z,34.67
2023-03-19T20:41:22.437Z,33.43
2023-03-19T20:43:58.084Z,52.50
2023-03-19T20:46:31.192Z,41.63
2023-03-19T20:49:05.297Z,35.53
2023-03-19T20:51:36.371Z,32.23
2023-03-19T20:54:07.361Z,30.87
2023-03-19T20:56:39.837Z,32.37
2023-03-19T20:59:14.343Z,32.00
2023-03-19T21:01:45.819Z,31.70
2023-03-19T21:04:21.956Z,32.63
2023-03-19T21:06:54.273Z,35.03
2023-03-19T21:09:27.720Z,36.60
2023-03-19T21:12:00.187Z,33.87
2023-03-19T21:14:33.109Z,34.67
2023-03-19T21:17:04.270Z,32.87
2023-03-19T21:19:34.322Z,34.77
2023-03-19T21:22:05.724Z,32.40
2023-03-19T21:24:38.216Z,33.27
2023-03-19T21:27:10.335Z,36.03
2023-03-19T21:29:42.684Z,35.83
2023-03-19T21:32:14.590Z,38.40
2023-03-19T21:34:45.896Z,37.93
2023-03-19T21:37:16.681Z,37.67
2023-03-19T21:39:47.920Z,38.30
2023-03-19T21:42:20.422Z,35.90
2023-03-19T21:44:56.973Z,39.37
2023-03-19T21:47:27.302Z,32.50
2023-03-19T21:49:58.942Z,36.13
2023-03-19T21:52:28.413Z,34.70
2023-03-19T21:54:57.893Z,36.00
2023-03-19T21:57:27.285Z,34.33
2023-03-19T21:59:57.989Z,36.87
2023-03-19T22:02:44.696Z,38.03
2023-03-19T22:05:26.238Z,40.00
2023-03-19T22:07:56.474Z,36.13
2023-03-19T22:10:30.478Z,39.17
2023-03-19T22:12:59.883Z,39.07
2023-03-19T22:15:36.747Z,41.10
2023-03-19T22:18:08.809Z,39.00
2023-03-19T22:20:38.290Z,40.77
2023-03-19T22:23:08.570Z,35.17
2023-03-19T22:25:41.912Z,42.40
2023-03-19T22:28:17.823Z,39.80
2023-03-19T22:30:49.285Z,39.67
2023-03-19T22:33:21.676Z,38.13
2023-03-19T22:35:52.571Z,39.27
2023-03-19T22:38:24.184Z,41.57
2023-03-19T22:40:56.270Z,40.07
2023-03-19T22:43:30.550Z,40.67
2023-03-19T22:46:04.625Z,41.63
2023-03-19T22:48:34.319Z,37.93
2023-03-19T22:51:04.493Z,41.80
2023-03-19T22:53:35.278Z,42.87
2023-03-19T22:56:06.002Z,47.90
2023-03-19T22:58:35.366Z,39.73
2023-03-19T23:01:13.992Z,41.73
2023-03-19T23:03:43.406Z,42.13
2023-03-19T23:06:29.090Z,48.03
2023-03-19T23:09:00.017Z,41.20
2023-03-19T23:11:29.603Z,40.13
2023-03-19T23:14:00.011Z,39.20
2023-03-19T23:16:31.380Z,40.33
2023-03-19T23:19:01.436Z,39.40
2023-03-19T23:21:31.747Z,39.93
2023-03-19T23:24:01.612Z,39.07
2023-03-19T23:26:34.913Z,45.10
2023-03-19T23:29:06.444Z,43.00
2023-03-19T23:31:37.350Z,46.63
2023-03-19T23:34:07.036Z,41.93
2023-03-19T23:36:36.883Z,43.10
2023-03-19T23:39:07.460Z,44.53
2023-03-19T23:41:41.781Z,42.70
2023-03-19T23:44:15.713Z,57.67
2023-03-19T23:46:47.591Z,46.00
2023-03-19T23:49:19.193Z,49.17
2023-03-19T23:51:48.599Z,43.27
2023-03-19T23:54:31.724Z,41.87
2023-03-19T23:57:05.594Z,43.17
2023-03-19T23:59:37.682Z,43.77
